Main page
METAR-TAF:

METAR-TAF

Airports :

Tanagra, Greece

latitude: 38-19N, longitude: 023-32E, elevation: 148 m

METAR: missing

Time: 11:04 (08:04 UTC)

Forecast

The report was made 3 hours and 4 minutes ago, at 05:00 UTC
Forecast valid from 15 at 06 UTC to 15 at 15 UTC
Wind 12 kt from the North/Northwest
Visibility 10 km or more
Few clouds at a height of 2000 ft
Broken clouds at a height of 3000 ft
Probability 30% :
Temporary
from 15 at 06 UTC to 15 at 15 UTC
Visibility: 7000 m
rain

TAF: LGTG 150500Z 1506/1515 33012KT 9999 FEW020 BKN030 PROB30 TEMPO 1506/1515 7000 RA

Weather observations and forecasts of more than 4000 airports (METAR and TAF reports).

The available stations are represented by yellow and red dots on the map.

Hover mouse over dot to see the name of the station.

Then click to see weather observations and forecasts.

To change the map : click on the green buttons with a black cross to zoom in, on the green button with a dash to zoom out, or on the green arrows for adjacent maps.


METAR-TAF: